sensor_id;sensor_type;location;lat;lon;timestamp;pressure;altitude;pressure_sealevel;temperature;humidity
61786;BME280;47692;53.714;11.372;2023-02-04T00:01:29;102124.38;;;1.58;97.70
61786;BME280;47692;53.714;11.372;2023-02-04T00:03:55;102138.72;;;1.52;97.98
61786;BME280;47692;53.714;11.372;2023-02-04T00:06:20;102148.03;;;1.48;98.93
61786;BME280;47692;53.714;11.372;2023-02-04T00:08:45;102144.50;;;1.46;99.09
61786;BME280;47692;53.714;11.372;2023-02-04T00:11:11;102161.72;;;1.47;100.00
61786;BME280;47692;53.714;11.372;2023-02-04T00:13:36;102180.66;;;1.49;100.00
61786;BME280;47692;53.714;11.372;2023-02-04T00:16:01;102184.88;;;1.47;100.00
61786;BME280;47692;53.714;11.372;2023-02-04T00:18:27;102179.44;;;1.39;100.00
61786;BME280;47692;53.714;11.372;2023-02-04T00:20:53;102186.94;;;1.33;100.00
61786;BME280;47692;53.714;11.372;2023-02-04T00:23:18;102194.47;;;1.28;100.00
61786;BME280;47692;53.714;11.372;2023-02-04T00:25:44;102198.72;;;1.28;100.00
61786;BME280;47692;53.714;11.372;2023-02-04T00:28:09;102207.56;;;1.35;100.00
61786;BME280;47692;53.714;11.372;2023-02-04T00:30:35;102209.38;;;1.37;100.00
61786;BME280;47692;53.714;11.372;2023-02-04T00:33:00;102216.19;;;1.37;100.00
61786;BME280;47692;53.714;11.372;2023-02-04T00:35:25;102218.97;;;1.41;100.00
61786;BME280;47692;53.714;11.372;2023-02-04T00:37:51;102214.47;;;1.36;100.00
61786;BME280;47692;53.714;11.372;2023-02-04T00:40:16;102235.06;;;1.36;100.00
61786;BME280;47692;53.714;11.372;2023-02-04T00:42:42;102235.56;;;1.27;100.00
61786;BME280;47692;53.714;11.372;2023-02-04T00:45:09;102238.06;;;1.25;100.00
61786;BME280;47692;53.714;11.372;2023-02-04T00:47:34;102246.50;;;1.21;100.00
61786;BME280;47692;53.714;11.372;2023-02-04T00:50:00;102248.34;;;1.25;100.00
61786;BME280;47692;53.714;11.372;2023-02-04T00:52:25;102257.09;;;1.29;100.00
61786;BME280;47692;53.714;11.372;2023-02-04T00:54:51;102272.72;;;1.34;100.00
61786;BME280;47692;53.714;11.372;2023-02-04T00:57:17;102271.09;;;1.36;100.00
61786;BME280;47692;53.714;11.372;2023-02-04T00:59:43;102276.09;;;1.33;100.00
61786;BME280;47692;53.714;11.372;2023-02-04T01:02:08;102275.41;;;1.37;100.00
61786;BME280;47692;53.714;11.372;2023-02-04T01:04:34;102280.50;;;1.35;100.00
61786;BME280;47692;53.714;11.372;2023-02-04T01:06:59;102269.56;;;1.41;100.00
61786;BME280;47692;53.714;11.372;2023-02-04T01:09:24;102283.38;;;1.43;100.00
61786;BME280;47692;53.714;11.372;2023-02-04T01:11:49;102288.66;;;1.46;100.00
61786;BME280;47692;53.714;11.372;2023-02-04T01:14:15;102294.56;;;1.43;100.00
61786;BME280;47692;53.714;11.372;2023-02-04T01:16:40;102305.84;;;1.47;100.00
61786;BME280;47692;53.714;11.372;2023-02-04T01:19:06;102314.59;;;1.51;100.00
61786;BME280;47692;53.714;11.372;2023-02-04T01:21:31;102314.50;;;1.49;100.00
61786;BME280;47692;53.714;11.372;2023-02-04T01:23:56;102318.59;;;1.44;100.00
61786;BME280;47692;53.714;11.372;2023-02-04T01:26:22;102326.56;;;1.50;100.00
61786;BME280;47692;53.714;11.372;2023-02-04T01:28:48;102330.94;;;1.53;100.00
61786;BME280;47692;53.714;11.372;2023-02-04T01:31:13;102340.25;;;1.49;100.00
61786;BME280;47692;53.714;11.372;2023-02-04T01:33:39;102341.09;;;1.48;100.00
61786;BME280;47692;53.714;11.372;2023-02-04T01:36:04;102351.53;;;1.53;100.00
61786;BME280;47692;53.714;11.372;2023-02-04T01:38:30;102357.44;;;1.50;100.00
61786;BME280;47692;53.714;11.372;2023-02-04T01:40:55;102367.63;;;1.47;100.00
61786;BME280;47692;53.714;11.372;2023-02-04T01:43:21;102367.88;;;1.53;100.00
61786;BME280;47692;53.714;11.372;2023-02-04T01:45:48;102373.84;;;1.52;99.44
61786;BME280;47692;53.714;11.372;2023-02-04T01:48:14;102381.63;;;1.54;99.41
61786;BME280;47692;53.714;11.372;2023-02-04T01:50:48;102379.00;;;1.52;98.91
61786;BME280;47692;53.714;11.372;2023-02-04T01:53:17;102389.16;;;1.49;97.74
61786;BME280;47692;53.714;11.372;2023-02-04T01:55:44;102395.69;;;1.41;97.51
61786;BME280;47692;53.714;11.372;2023-02-04T01:58:11;102401.50;;;1.37;97.98
61786;BME280;47692;53.714;11.372;2023-02-04T02:00:37;102401.66;;;1.40;97.76
61786;BME280;47692;53.714;11.372;2023-02-04T02:03:03;102406.91;;;1.43;98.11
61786;BME280;47692;53.714;11.372;2023-02-04T02:05:38;102422.50;;;1.46;98.65
61786;BME280;47692;53.714;11.372;2023-02-04T02:08:04;102424.28;;;1.47;98.56
61786;BME280;47692;53.714;11.372;2023-02-04T02:10:32;102422.50;;;1.46;98.90
61786;BME280;47692;53.714;11.372;2023-02-04T02:12:57;102434.31;;;1.41;98.78
61786;BME280;47692;53.714;11.372;2023-02-04T02:15:23;102441.00;;;1.37;99.50
61786;BME280;47692;53.714;11.372;2023-02-04T02:17:50;102444.44;;;1.38;98.88
61786;BME280;47692;53.714;11.372;2023-02-04T02:20:17;102451.38;;;1.39;99.01
61786;BME280;47692;53.714;11.372;2023-02-04T02:25:29;102468.69;;;1.43;100.00
61786;BME280;47692;53.714;11.372;2023-02-04T02:27:55;102470.34;;;1.41;98.88
61786;BME280;47692;53.714;11.372;2023-02-04T02:30:21;102478.72;;;1.37;98.82
61786;BME280;47692;53.714;11.372;2023-02-04T02:32:47;102479.56;;;1.36;99.41
61786;BME280;47692;53.714;11.372;2023-02-04T02:35:14;102485.56;;;1.36;98.90
61786;BME280;47692;53.714;11.372;2023-02-04T02:37:40;102484.72;;;1.36;99.53
61786;BME280;47692;53.714;11.372;2023-02-04T02:40:07;102482.94;;;1.35;99.93
61786;BME280;47692;53.714;11.372;2023-02-04T02:42:32;102493.34;;;1.38;99.87
61786;BME280;47692;53.714;11.372;2023-02-04T02:44:58;102494.31;;;1.40;99.14
61786;BME280;47692;53.714;11.372;2023-02-04T02:47:25;102505.69;;;1.45;99.05
61786;BME280;47692;53.714;11.372;2023-02-04T02:49:51;102505.34;;;1.37;98.84
61786;BME280;47692;53.714;11.372;2023-02-04T02:52:18;102511.47;;;1.39;99.27
61786;BME280;47692;53.714;11.372;2023-02-04T02:54:44;102519.91;;;1.37;99.12
61786;BME280;47692;53.714;11.372;2023-02-04T02:57:12;102517.41;;;1.38;99.69
61786;BME280;47692;53.714;11.372;2023-02-04T02:59:38;102528.59;;;1.39;99.76
61786;BME280;47692;53.714;11.372;2023-02-04T03:02:03;102530.34;;;1.40;100.00
61786;BME280;47692;53.714;11.372;2023-02-04T03:04:33;102526.06;;;1.40;99.95
61786;BME280;47692;53.714;11.372;2023-02-04T03:07:01;102530.19;;;1.37;99.37
61786;BME280;47692;53.714;11.372;2023-02-04T03:09:26;102538.59;;;1.33;99.06
61786;BME280;47692;53.714;11.372;2023-02-04T03:11:53;102545.25;;;1.27;98.88
61786;BME280;47692;53.714;11.372;2023-02-04T03:14:18;102560.69;;;1.27;99.19
61786;BME280;47692;53.714;11.372;2023-02-04T03:16:45;102557.91;;;1.23;98.80
61786;BME280;47692;53.714;11.372;2023-02-04T03:19:11;102561.97;;;1.18;99.60
61786;BME280;47692;53.714;11.372;2023-02-04T03:21:36;102570.69;;;1.21;99.88
61786;BME280;47692;53.714;11.372;2023-02-04T03:24:03;102565.44;;;1.18;100.00
61786;BME280;47692;53.714;11.372;2023-02-04T03:26:28;102565.44;;;1.18;100.00
61786;BME280;47692;53.714;11.372;2023-02-04T03:28:53;102582.59;;;1.19;100.00
61786;BME280;47692;53.714;11.372;2023-02-04T03:31:19;102592.78;;;1.16;99.43
61786;BME280;47692;53.714;11.372;2023-02-04T03:33:45;102600.25;;;1.11;98.87
61786;BME280;47692;53.714;11.372;2023-02-04T03:36:10;102604.38;;;1.08;99.21
61786;BME280;47692;53.714;11.372;2023-02-04T03:38:35;102615.19;;;1.01;99.63
61786;BME280;47692;53.714;11.372;2023-02-04T03:41:01;102625.19;;;0.94;99.17
61786;BME280;47692;53.714;11.372;2023-02-04T03:43:26;102623.50;;;0.95;99.89
61786;BME280;47692;53.714;11.372;2023-02-04T03:45:52;102632.91;;;0.94;100.00
61786;BME280;47692;53.714;11.372;2023-02-04T03:48:17;102643.34;;;0.98;99.96
61786;BME280;47692;53.714;11.372;2023-02-04T03:50:42;102647.81;;;1.02;99.49
61786;BME280;47692;53.714;11.372;2023-02-04T03:53:08;102641.47;;;0.93;99.45
61786;BME280;47692;53.714;11.372;2023-02-04T03:55:34;102641.97;;;0.86;99.42
61786;BME280;47692;53.714;11.372;2023-02-04T03:58:00;102647.91;;;0.85;98.97
61786;BME280;47692;53.714;11.372;2023-02-04T04:00:26;102651.88;;;0.78;99.83
61786;BME280;47692;53.714;11.372;2023-02-04T04:02:51;102652.47;;;0.73;99.89
61786;BME280;47692;53.714;11.372;2023-02-04T04:05:16;102654.50;;;0.62;99.83
61786;BME280;47692;53.714;11.372;2023-02-04T04:07:42;102664.16;;;0.50;100.00
61786;BME280;47692;53.714;11.372;2023-02-04T04:10:07;102664.44;;;0.38;99.75
61786;BME280;47692;53.714;11.372;2023-02-04T04:12:33;102670.06;;;0.30;100.00
61786;BME280;47692;53.714;11.372;2023-02-04T04:14:58;102667.19;;;0.24;100.00
61786;BME280;47692;53.714;11.372;2023-02-04T04:17:23;102681.00;;;0.26;100.00
61786;BME280;47692;53.714;11.372;2023-02-04T04:19:48;102687.75;;;0.24;100.00
61786;BME280;47692;53.714;11.372;2023-02-04T04:22:14;102691.78;;;0.19;100.00
61786;BME280;47692;53.714;11.372;2023-02-04T04:24:39;102695.94;;;0.17;100.00
61786;BME280;47692;53.714;11.372;2023-02-04T04:27:05;102709.75;;;0.19;100.00
61786;BME280;47692;53.714;11.372;2023-02-04T04:29:31;102721.88;;;0.22;100.00
61786;BME280;47692;53.714;11.372;2023-02-04T04:31:56;102728.00;;;0.24;100.00
61786;BME280;47692;53.714;11.372;2023-02-04T04:34:21;102732.22;;;0.23;100.00
61786;BME280;47692;53.714;11.372;2023-02-04T04:36:46;102739.28;;;0.27;100.00
61786;BME280;47692;53.714;11.372;2023-02-04T04:39:12;102756.16;;;0.22;100.00
61786;BME280;47692;53.714;11.372;2023-02-04T04:41:37;102761.22;;;0.21;100.00
61786;BME280;47692;53.714;11.372;2023-02-04T04:44:02;102761.28;;;0.22;100.00
61786;BME280;47692;53.714;11.372;2023-02-04T04:46:28;102777.41;;;0.20;100.00
61786;BME280;47692;53.714;11.372;2023-02-04T04:48:53;102786.56;;;0.14;100.00
61786;BME280;47692;53.714;11.372;2023-02-04T04:51:18;102782.09;;;0.10;100.00
61786;BME280;47692;53.714;11.372;2023-02-04T04:53:43;102795.72;;;0.09;100.00
61786;BME280;47692;53.714;11.372;2023-02-04T04:56:09;102800.78;;;0.08;100.00
61786;BME280;47692;53.714;11.372;2023-02-04T04:58:34;102808.50;;;0.08;100.00
61786;BME280;47692;53.714;11.372;2023-02-04T05:00:59;102809.38;;;0.08;100.00
61786;BME280;47692;53.714;11.372;2023-02-04T05:03:24;102818.06;;;0.10;100.00
61786;BME280;47692;53.714;11.372;2023-02-04T05:05:50;102825.50;;;0.06;100.00
61786;BME280;47692;53.714;11.372;2023-02-04T05:08:15;102821.16;;;0.05;100.00
61786;BME280;47692;53.714;11.372;2023-02-04T05:10:42;102815.94;;;0.03;100.00
61786;BME280;47692;53.714;11.372;2023-02-04T05:13:08;102823.38;;;-0.02;100.00
61786;BME280;47692;53.714;11.372;2023-02-04T05:15:34;102826.94;;;0.01;100.00
61786;BME280;47692;53.714;11.372;2023-02-04T05:17:59;102830.31;;;-0.01;100.00
61786;BME280;47692;53.714;11.372;2023-02-04T05:20:25;102823.56;;;0.02;100.00
61786;BME280;47692;53.714;11.372;2023-02-04T05:22:50;102822.13;;;0.07;100.00
61786;BME280;47692;53.714;11.372;2023-02-04T05:25:16;102818.66;;;0.06;100.00
61786;BME280;47692;53.714;11.372;2023-02-04T05:27:42;102811.84;;;0.07;100.00
61786;BME280;47692;53.714;11.372;2023-02-04T05:30:09;102815.41;;;0.09;100.00
61786;BME280;47692;53.714;11.372;2023-02-04T05:32:35;102821.94;;;0.04;100.00
61786;BME280;47692;53.714;11.372;2023-02-04T05:35:00;102820.75;;;-0.03;100.00
61786;BME280;47692;53.714;11.372;2023-02-04T05:37:26;102828.66;;;-0.15;100.00
61786;BME280;47692;53.714;11.372;2023-02-04T05:39:51;102818.88;;;-0.22;100.00
61786;BME280;47692;53.714;11.372;2023-02-04T05:42:16;102833.22;;;-0.26;100.00
61786;BME280;47692;53.714;11.372;2023-02-04T05:44:42;102836.72;;;-0.24;100.00
61786;BME280;47692;53.714;11.372;2023-02-04T05:47:07;102838.56;;;-0.21;100.00
61786;BME280;47692;53.714;11.372;2023-02-04T05:49:32;102847.44;;;-0.16;100.00
61786;BME280;47692;53.714;11.372;2023-02-04T05:51:57;102854.44;;;-0.13;100.00
61786;BME280;47692;53.714;11.372;2023-02-04T05:54:23;102852.81;;;-0.11;100.00
61786;BME280;47692;53.714;11.372;2023-02-04T05:56:48;102859.56;;;-0.13;100.00
61786;BME280;47692;53.714;11.372;2023-02-04T05:59:15;102862.03;;;-0.15;100.00
61786;BME280;47692;53.714;11.372;2023-02-04T06:01:41;102867.00;;;-0.18;100.00
61786;BME280;47692;53.714;11.372;2023-02-04T06:04:06;102869.50;;;-0.20;100.00
61786;BME280;47692;53.714;11.372;2023-02-04T06:06:31;102876.13;;;-0.23;100.00
61786;BME280;47692;53.714;11.372;2023-02-04T06:08:57;102881.28;;;-0.23;100.00
61786;BME280;47692;53.714;11.372;2023-02-04T06:11:22;102888.44;;;-0.33;100.00
61786;BME280;47692;53.714;11.372;2023-02-04T06:13:47;102890.94;;;-0.34;100.00
61786;BME280;47692;53.714;11.372;2023-02-04T06:16:12;102887.28;;;-0.38;100.00
61786;BME280;47692;53.714;11.372;2023-02-04T06:18:38;102888.09;;;-0.39;100.00
61786;BME280;47692;53.714;11.372;2023-02-04T06:21:03;102899.63;;;-0.47;100.00
61786;BME280;47692;53.714;11.372;2023-02-04T06:23:30;102906.31;;;-0.49;100.00
61786;BME280;47692;53.714;11.372;2023-02-04T06:25:55;102903.59;;;-0.52;100.00
61786;BME280;47692;53.714;11.372;2023-02-04T06:28:20;102910.41;;;-0.53;100.00
61786;BME280;47692;53.714;11.372;2023-02-04T06:30:45;102915.53;;;-0.53;100.00
61786;BME280;47692;53.714;11.372;2023-02-04T06:33:11;102929.84;;;-0.56;100.00
61786;BME280;47692;53.714;11.372;2023-02-04T06:35:36;102931.09;;;-0.64;100.00
61786;BME280;47692;53.714;11.372;2023-02-04T06:38:01;102937.97;;;-0.63;100.00
61786;BME280;47692;53.714;11.372;2023-02-04T06:40:27;102942.25;;;-0.64;100.00
61786;BME280;47692;53.714;11.372;2023-02-04T06:42:52;102953.13;;;-0.68;100.00
61786;BME280;47692;53.714;11.372;2023-02-04T06:45:17;102958.84;;;-0.72;100.00
61786;BME280;47692;53.714;11.372;2023-02-04T06:47:42;102960.97;;;-0.80;100.00
61786;BME280;47692;53.714;11.372;2023-02-04T06:50:08;102965.03;;;-0.84;100.00
61786;BME280;47692;53.714;11.372;2023-02-04T06:52:34;102968.56;;;-0.82;100.00
61786;BME280;47692;53.714;11.372;2023-02-04T06:54:59;102971.59;;;-0.74;100.00
61786;BME280;47692;53.714;11.372;2023-02-04T06:57:25;102971.22;;;-0.80;100.00
61786;BME280;47692;53.714;11.372;2023-02-04T06:59:50;102977.59;;;-0.88;100.00
61786;BME280;47692;53.714;11.372;2023-02-04T07:02:15;102985.16;;;-0.90;100.00
61786;BME280;47692;53.714;11.372;2023-02-04T07:04:40;102982.72;;;-0.88;100.00
61786;BME280;47692;53.714;11.372;2023-02-04T07:07:08;102989.94;;;-0.96;100.00
61786;BME280;47692;53.714;11.372;2023-02-04T07:09:34;103002.50;;;-1.01;100.00
61786;BME280;47692;53.714;11.372;2023-02-04T07:11:59;103003.69;;;-1.09;100.00
61786;BME280;47692;53.714;11.372;2023-02-04T07:14:24;103007.44;;;-1.17;100.00
61786;BME280;47692;53.714;11.372;2023-02-04T07:16:50;103011.22;;;-1.25;100.00
61786;BME280;47692;53.714;11.372;2023-02-04T07:19:15;103021.25;;;-1.28;100.00
61786;BME280;47692;53.714;11.372;2023-02-04T07:21:40;103016.75;;;-1.33;100.00
61786;BME280;47692;53.714;11.372;2023-02-04T07:24:06;103017.13;;;-1.26;100.00
61786;BME280;47692;53.714;11.372;2023-02-04T07:26:31;103022.44;;;-1.23;100.00
61786;BME280;47692;53.714;11.372;2023-02-04T07:28:58;103030.34;;;-1.20;100.00
61786;BME280;47692;53.714;11.372;2023-02-04T07:31:23;103026.56;;;-1.12;100.00
61786;BME280;47692;53.714;11.372;2023-02-04T07:33:48;103030.31;;;-1.07;100.00
61786;BME280;47692;53.714;11.372;2023-02-04T07:36:14;103024.50;;;-1.04;100.00
61786;BME280;47692;53.714;11.372;2023-02-04T07:38:39;103029.88;;;-1.00;100.00
61786;BME280;47692;53.714;11.372;2023-02-04T07:41:04;103028.31;;;-0.98;100.00
61786;BME280;47692;53.714;11.372;2023-02-04T07:43:29;103034.13;;;-1.00;100.00
61786;BME280;47692;53.714;11.372;2023-02-04T07:45:55;103039.97;;;-1.03;100.00
61786;BME280;47692;53.714;11.372;2023-02-04T07:48:20;103050.91;;;-1.05;100.00
61786;BME280;47692;53.714;11.372;2023-02-04T07:50:45;103059.00;;;-1.12;100.00
61786;BME280;47692;53.714;11.372;2023-02-04T07:53:11;103057.94;;;-1.16;100.00
61786;BME280;47692;53.714;11.372;2023-02-04T07:55:36;103068.41;;;-1.13;100.00
61786;BME280;47692;53.714;11.372;2023-02-04T07:58:02;103071.22;;;-1.08;100.00
61786;BME280;47692;53.714;11.372;2023-02-04T08:00:27;103074.88;;;-1.05;100.00
61786;BME280;47692;53.714;11.372;2023-02-04T08:02:53;103084.72;;;-0.98;100.00
61786;BME280;47692;53.714;11.372;2023-02-04T08:05:18;103086.28;;;-1.00;100.00
61786;BME280;47692;53.714;11.372;2023-02-04T08:07:43;103092.81;;;-1.05;100.00
61786;BME280;47692;53.714;11.372;2023-02-04T08:10:10;103097.94;;;-1.05;100.00
61786;BME280;47692;53.714;11.372;2023-02-04T08:12:36;103099.63;;;-1.05;100.00
61786;BME280;47692;53.714;11.372;2023-02-04T08:15:01;103106.25;;;-0.95;100.00
61786;BME280;47692;53.714;11.372;2023-02-04T08:17:27;103103.84;;;-0.92;100.00
61786;BME280;47692;53.714;11.372;2023-02-04T08:19:52;103116.09;;;-0.88;100.00
61786;BME280;47692;53.714;11.372;2023-02-04T08:22:18;103112.94;;;-0.84;100.00
61786;BME280;47692;53.714;11.372;2023-02-04T08:24:43;103116.84;;;-0.76;100.00
61786;BME280;47692;53.714;11.372;2023-02-04T08:27:08;103115.88;;;-0.78;100.00
61786;BME280;47692;53.714;11.372;2023-02-04T08:29:34;103115.25;;;-0.74;100.00
61786;BME280;47692;53.714;11.372;2023-02-04T08:31:59;103129.25;;;-0.69;100.00
61786;BME280;47692;53.714;11.372;2023-02-04T08:34:24;103127.06;;;-0.62;100.00
61786;BME280;47692;53.714;11.372;2023-02-04T08:36:50;103133.38;;;-0.57;100.00
61786;BME280;47692;53.714;11.372;2023-02-04T08:39:15;103133.97;;;-0.48;100.00
61786;BME280;47692;53.714;11.372;2023-02-04T08:41:40;103136.91;;;-0.42;100.00
61786;BME280;47692;53.714;11.372;2023-02-04T08:44:06;103138.78;;;-0.39;100.00
61786;BME280;47692;53.714;11.372;2023-02-04T08:46:31;103145.84;;;-0.35;100.00
61786;BME280;47692;53.714;11.372;2023-02-04T08:48:56;103139.16;;;-0.33;100.00
61786;BME280;47692;53.714;11.372;2023-02-04T08:51:22;103137.44;;;-0.33;100.00
61786;BME280;47692;53.714;11.372;2023-02-04T08:53:47;103142.00;;;-0.28;100.00
61786;BME280;47692;53.714;11.372;2023-02-04T08:56:12;103146.19;;;-0.15;100.00
61786;BME280;47692;53.714;11.372;2023-02-04T08:58:42;103148.06;;;-0.13;100.00
61786;BME280;47692;53.714;11.372;2023-02-04T09:01:08;103151.78;;;-0.08;100.00
61786;BME280;47692;53.714;11.372;2023-02-04T09:03:35;103154.63;;;-0.03;100.00
61786;BME280;47692;53.714;11.372;2023-02-04T09:06:01;103152.16;;;-0.02;100.00
61786;BME280;47692;53.714;11.372;2023-02-04T09:08:26;103157.47;;;0.02;100.00
61786;BME280;47692;53.714;11.372;2023-02-04T09:10:51;103161.63;;;-0.01;100.00
61786;BME280;47692;53.714;11.372;2023-02-04T09:13:16;103159.84;;;-0.02;100.00
61786;BME280;47692;53.714;11.372;2023-02-04T09:15:42;103167.75;;;0.02;100.00
61786;BME280;47692;53.714;11.372;2023-02-04T09:18:07;103167.34;;;0.09;100.00
61786;BME280;47692;53.714;11.372;2023-02-04T09:20:40;103168.28;;;0.11;100.00
61786;BME280;47692;53.714;11.372;2023-02-04T09:23:05;103165.91;;;0.14;100.00
61786;BME280;47692;53.714;11.372;2023-02-04T09:25:33;103174.78;;;0.19;100.00
61786;BME280;47692;53.714;11.372;2023-02-04T09:27:58;103176.09;;;0.27;100.00
61786;BME280;47692;53.714;11.372;2023-02-04T09:30:24;103179.25;;;0.37;100.00
61786;BME280;47692;53.714;11.372;2023-02-04T09:32:49;103180.66;;;0.46;100.00
61786;BME280;47692;53.714;11.372;2023-02-04T09:35:14;103189.44;;;0.50;100.00
61786;BME280;47692;53.714;11.372;2023-02-04T09:37:40;103185.97;;;0.50;100.00
61786;BME280;47692;53.714;11.372;2023-02-04T09:40:05;103197.31;;;0.53;100.00
61786;BME280;47692;53.714;11.372;2023-02-04T09:42:31;103200.09;;;0.56;100.00
61786;BME280;47692;53.714;11.372;2023-02-04T09:44:56;103197.59;;;0.58;100.00
61786;BME280;47692;53.714;11.372;2023-02-04T09:47:24;103201.25;;;0.61;100.00
61786;BME280;47692;53.714;11.372;2023-02-04T09:49:50;103202.66;;;0.71;100.00
61786;BME280;47692;53.714;11.372;2023-02-04T09:52:17;103199.28;;;0.87;100.00
61786;BME280;47692;53.714;11.372;2023-02-04T09:54:43;103203.63;;;1.03;100.00
61786;BME280;47692;53.714;11.372;2023-02-04T09:57:17;103199.25;;;1.17;100.00
61786;BME280;47692;53.714;11.372;2023-02-04T09:59:44;103201.00;;;1.33;100.00
61786;BME280;47692;53.714;11.372;2023-02-04T10:02:22;103204.72;;;1.55;100.00
61786;BME280;47692;53.714;11.372;2023-02-04T10:04:50;103205.78;;;1.58;98.57
61786;BME280;47692;53.714;11.372;2023-02-04T10:07:17;103204.97;;;1.59;96.64
61786;BME280;47692;53.714;11.372;2023-02-04T10:09:46;103209.66;;;1.67;95.74
61786;BME280;47692;53.714;11.372;2023-02-04T10:12:12;103209.16;;;1.74;95.27
61786;BME280;47692;53.714;11.372;2023-02-04T10:14:38;103218.34;;;1.69;94.72
61786;BME280;47692;53.714;11.372;2023-02-04T10:17:04;103214.09;;;1.69;94.43
61786;BME280;47692;53.714;11.372;2023-02-04T10:19:32;103209.91;;;1.71;93.91
61786;BME280;47692;53.714;11.372;2023-02-04T10:21:57;103208.38;;;1.75;94.15
61786;BME280;47692;53.714;11.372;2023-02-04T10:24:25;103210.47;;;1.66;93.77
61786;BME280;47692;53.714;11.372;2023-02-04T10:26:52;103205.44;;;1.52;93.77
61786;BME280;47692;53.714;11.372;2023-02-04T10:29:20;103209.19;;;1.42;94.95
61786;BME280;47692;53.714;11.372;2023-02-04T10:31:47;103218.44;;;1.39;94.92
61786;BME280;47692;53.714;11.372;2023-02-04T10:34:16;103228.75;;;1.39;94.83
61786;BME280;47692;53.714;11.372;2023-02-04T10:36:44;103224.13;;;1.48;94.84
61786;BME280;47692;53.714;11.372;2023-02-04T10:39:17;103226.03;;;1.52;95.02
61786;BME280;47692;53.714;11.372;2023-02-04T10:41:48;103231.69;;;1.61;95.29
61786;BME280;47692;53.714;11.372;2023-02-04T10:44:17;103228.31;;;1.63;94.15
61786;BME280;47692;53.714;11.372;2023-02-04T10:46:42;103227.19;;;1.74;94.05
61786;BME280;47692;53.714;11.372;2023-02-04T10:49:34;103228.38;;;1.96;94.40
61786;BME280;47692;53.714;11.372;2023-02-04T10:52:00;103228.69;;;2.02;94.58
61786;BME280;47692;53.714;11.372;2023-02-04T10:54:33;103224.81;;;2.26;94.85
61786;BME280;47692;53.714;11.372;2023-02-04T10:57:25;103225.78;;;2.45;92.73
61786;BME280;47692;53.714;11.372;2023-02-04T10:59:53;103226.50;;;2.42;88.81
61786;BME280;47692;53.714;11.372;2023-02-04T11:02:31;103229.72;;;2.38;87.34
61786;BME280;47692;53.714;11.372;2023-02-04T11:04:57;103239.91;;;2.53;88.43
61786;BME280;47692;53.714;11.372;2023-02-04T11:07:23;103239.59;;;2.47;88.20
61786;BME280;47692;53.714;11.372;2023-02-04T11:09:48;103244.31;;;2.21;87.35
61786;BME280;47692;53.714;11.372;2023-02-04T11:12:36;103241.09;;;2.09;88.01
61786;BME280;47692;53.714;11.372;2023-02-04T11:15:03;103250.91;;;2.00;88.43
61786;BME280;47692;53.714;11.372;2023-02-04T11:17:30;103247.19;;;1.94;89.32
61786;BME280;47692;53.714;11.372;2023-02-04T11:19:56;103250.09;;;1.84;89.75
61786;BME280;47692;53.714;11.372;2023-02-04T11:25:32;103246.47;;;1.97;90.70
61786;BME280;47692;53.714;11.372;2023-02-04T11:27:59;103248.19;;;2.13;90.89
61786;BME280;47692;53.714;11.372;2023-02-04T11:30:30;103244.03;;;2.50;90.94
61786;BME280;47692;53.714;11.372;2023-02-04T11:33:04;103246.50;;;2.81;90.53
61786;BME280;47692;53.714;11.372;2023-02-04T11:35:31;103246.63;;;2.84;86.48
61786;BME280;47692;53.714;11.372;2023-02-04T11:37:57;103250.50;;;3.11;86.09
61786;BME280;47692;53.714;11.372;2023-02-04T11:40:28;103253.16;;;3.30;85.42
61786;BME280;47692;53.714;11.372;2023-02-04T11:45:30;103254.34;;;3.37;82.50
61786;BME280;47692;53.714;11.372;2023-02-04T11:47:58;103255.22;;;3.19;82.98
61786;BME280;47692;53.714;11.372;2023-02-04T11:50:34;103258.84;;;3.05;81.73
61786;BME280;47692;53.714;11.372;2023-02-04T11:53:02;103251.19;;;2.72;80.13
61786;BME280;47692;53.714;11.372;2023-02-04T11:55:29;103248.00;;;2.43;80.52
61786;BME280;47692;53.714;11.372;2023-02-04T11:57:56;103246.72;;;2.35;81.49
61786;BME280;47692;53.714;11.372;2023-02-04T12:00:28;103252.97;;;2.40;83.23
61786;BME280;47692;53.714;11.372;2023-02-04T12:02:55;103258.97;;;2.39;84.11
61786;BME280;47692;53.714;11.372;2023-02-04T12:05:21;103257.97;;;2.53;85.46
61786;BME280;47692;53.714;11.372;2023-02-04T12:07:47;103257.97;;;2.70;85.82
61786;BME280;47692;53.714;11.372;2023-02-04T12:12:49;103254.78;;;3.64;83.28
61786;BME280;47692;53.714;11.372;2023-02-04T12:15:32;103256.38;;;4.00;82.20
61786;BME280;47692;53.714;11.372;2023-02-04T12:20:26;103253.38;;;4.30;78.33
61786;BME280;47692;53.714;11.372;2023-02-04T12:22:51;103258.06;;;4.39;78.48
61786;BME280;47692;53.714;11.372;2023-02-04T12:25:16;103264.00;;;4.36;77.18
61786;BME280;47692;53.714;11.372;2023-02-04T12:27:44;103267.69;;;4.22;76.78
61786;BME280;47692;53.714;11.372;2023-02-04T12:30:10;103276.78;;;4.13;76.29
61786;BME280;47692;53.714;11.372;2023-02-04T12:32:36;103274.19;;;3.94;77.68
61786;BME280;47692;53.714;11.372;2023-02-04T12:35:01;103279.44;;;4.15;78.80
61786;BME280;47692;53.714;11.372;2023-02-04T12:37:27;103281.97;;;4.13;79.30
61786;BME280;47692;53.714;11.372;2023-02-04T12:39:52;103281.81;;;4.30;79.03
61786;BME280;47692;53.714;11.372;2023-02-04T12:42:17;103283.44;;;4.47;78.42
61786;BME280;47692;53.714;11.372;2023-02-04T12:44:43;103290.31;;;4.66;76.05
61786;BME280;47692;53.714;11.372;2023-02-04T12:47:08;103285.28;;;4.91;74.96
61786;BME280;47692;53.714;11.372;2023-02-04T12:49:33;103287.22;;;4.95;74.17